createdAt,value
2022-09-16T00:01:05.111Z,16.12
2022-09-16T00:06:07.223Z,16.09
2022-09-16T00:11:07.351Z,16.00
2022-09-16T00:16:07.503Z,15.96
2022-09-16T00:21:06.655Z,16.06
2022-09-16T00:26:07.761Z,16.04
2022-09-16T00:31:08.906Z,16.11
2022-09-16T00:36:11.001Z,16.25
2022-09-16T00:41:10.102Z,16.20
2022-09-16T00:46:12.362Z,16.00
2022-09-16T00:51:11.460Z,15.88
2022-09-16T00:56:12.568Z,15.81
2022-09-16T01:01:13.795Z,15.89
2022-09-16T01:06:14.951Z,16.00
2022-09-16T01:11:16.057Z,15.97
2022-09-16T01:16:17.172Z,15.92
2022-09-16T01:21:18.275Z,15.64
2022-09-16T01:26:19.356Z,15.24
2022-09-16T01:31:20.505Z,15.11
2022-09-16T01:36:22.625Z,15.12
2022-09-16T01:41:21.733Z,15.03
2022-09-16T01:46:23.035Z,14.86
2022-09-16T01:51:24.162Z,14.93
2022-09-16T01:56:25.292Z,14.84
2022-09-16T02:01:27.435Z,14.90
2022-09-16T02:06:28.508Z,14.93
2022-09-16T02:11:27.592Z,14.88
2022-09-16T02:16:30.745Z,14.74
2022-09-16T02:21:30.827Z,14.81
2022-09-16T02:26:29.968Z,14.84
2022-09-16T02:31:31.098Z,14.86
2022-09-16T02:36:32.194Z,14.93
2022-09-16T02:41:35.304Z,14.86
2022-09-16T02:46:35.455Z,14.84
2022-09-16T02:51:34.532Z,14.83
2022-09-16T02:56:35.611Z,14.84
2022-09-16T03:01:36.726Z,15.01
2022-09-16T03:06:37.805Z,14.99
2022-09-16T03:11:38.901Z,14.90
2022-09-16T03:16:45.380Z,14.81
2022-09-16T03:21:40.899Z,14.83
2022-09-16T03:26:42.007Z,14.91
2022-09-16T03:31:44.086Z,14.86
2022-09-16T03:36:43.182Z,14.93
2022-09-16T03:41:44.273Z,14.93
2022-09-16T03:46:45.375Z,14.91
2022-09-16T03:51:46.442Z,14.95
2022-09-16T03:56:48.547Z,14.91
2022-09-16T04:01:47.708Z,14.87
2022-09-16T04:06:49.825Z,14.78
2022-09-16T04:11:48.916Z,14.72
2022-09-16T04:16:50.037Z,14.65
2022-09-16T04:21:52.110Z,14.57
2022-09-16T04:26:51.221Z,14.43
2022-09-16T04:31:53.327Z,14.43
2022-09-16T04:36:52.453Z,14.44
2022-09-16T04:41:53.580Z,14.34
2022-09-16T04:46:54.654Z,14.44
2022-09-16T04:51:56.831Z,14.44
2022-09-16T04:56:55.902Z,14.61
2022-09-16T05:01:58.103Z,14.53
2022-09-16T05:06:58.233Z,14.62
2022-09-16T05:11:58.351Z,14.60
2022-09-16T05:16:57.449Z,14.53
2022-09-16T05:21:58.574Z,14.52
2022-09-16T05:26:59.726Z,14.61
2022-09-16T05:32:01.832Z,14.71
2022-09-16T05:37:01.250Z,14.87
2022-09-16T05:42:03.402Z,14.84
2022-09-16T05:47:03.678Z,14.87
2022-09-16T05:52:02.786Z,14.80
2022-09-16T05:57:07.007Z,14.75
2022-09-16T06:02:04.563Z,14.88
2022-09-16T06:07:05.682Z,15.12
2022-09-16T06:12:05.790Z,15.24
2022-09-16T06:17:05.880Z,15.33
2022-09-16T06:22:08.986Z,15.57
2022-09-16T06:27:08.163Z,15.68
2022-09-16T06:32:09.261Z,15.68
2022-09-16T06:37:11.350Z,15.85
2022-09-16T06:42:11.479Z,15.66
2022-09-16T06:47:11.584Z,15.89
2022-09-16T06:52:11.704Z,16.31
2022-09-16T06:57:12.282Z,16.49
2022-09-16T07:02:11.745Z,16.67
2022-09-16T07:07:13.831Z,16.99
2022-09-16T07:12:18.831Z,17.17
2022-09-16T07:17:13.891Z,17.70
2022-09-16T07:22:14.975Z,17.88
2022-09-16T07:27:17.082Z,18.13
2022-09-16T07:32:18.165Z,18.54
2022-09-16T07:37:19.282Z,18.94
2022-09-16T07:42:18.389Z,18.95
2022-09-16T07:47:22.352Z,18.52
2022-09-16T07:52:19.593Z,18.44
2022-09-16T07:57:20.655Z,18.42
2022-09-16T08:02:21.864Z,18.79
2022-09-16T08:07:25.017Z,19.10
2022-09-16T08:12:25.161Z,19.06
2022-09-16T08:17:25.333Z,18.91
2022-09-16T08:22:25.486Z,18.92
2022-09-16T08:27:26.623Z,18.37
2022-09-16T08:32:26.816Z,18.62
2022-09-16T08:37:25.890Z,18.42
2022-09-16T08:42:27.018Z,18.92
2022-09-16T08:47:29.198Z,19.65
2022-09-16T08:52:27.278Z,19.20
2022-09-16T08:57:29.432Z,18.86
2022-09-16T09:02:29.922Z,18.92
2022-09-16T09:07:29.209Z,19.08
2022-09-16T09:12:32.543Z,19.31
2022-09-16T09:17:30.245Z,19.51
2022-09-16T09:22:31.365Z,19.46
2022-09-16T09:27:32.463Z,20.08
2022-09-16T09:32:48.108Z,19.60
2022-09-16T09:37:33.558Z,19.94
2022-09-16T09:42:34.753Z,20.20
2022-09-16T09:47:35.860Z,19.53
2022-09-16T09:52:36.979Z,19.25
2022-09-16T09:57:38.151Z,19.18
2022-09-16T10:02:39.324Z,18.82
2022-09-16T10:07:40.431Z,18.64
2022-09-16T10:12:42.561Z,19.13
2022-09-16T10:17:46.577Z,19.86
2022-09-16T10:22:42.680Z,19.76
2022-09-16T10:27:41.818Z,19.73
2022-09-16T10:32:43.947Z,19.70
2022-09-16T10:37:45.064Z,20.30
2022-09-16T10:42:44.181Z,21.20
2022-09-16T10:52:46.336Z,21.19
2022-09-16T10:57:47.473Z,20.76
2022-09-16T11:02:48.587Z,21.02
2022-09-16T11:07:49.711Z,21.14
2022-09-16T11:12:50.868Z,21.14
2022-09-16T11:17:51.981Z,21.88
2022-09-16T11:22:53.097Z,21.76
2022-09-16T11:27:56.270Z,21.32
2022-09-16T11:32:56.991Z,20.95
2022-09-16T11:37:57.663Z,21.04
2022-09-16T11:42:57.803Z,20.96
2022-09-16T11:47:56.910Z,20.72
2022-09-16T11:53:04.053Z,20.53
2022-09-16T11:57:59.287Z,20.08
2022-09-16T12:02:58.511Z,18.68
2022-09-16T12:07:59.672Z,18.22
2022-09-16T12:13:00.778Z,17.88
2022-09-16T12:18:01.912Z,17.28
2022-09-16T12:23:05.035Z,17.28
2022-09-16T12:28:04.168Z,17.04
2022-09-16T12:33:06.342Z,17.03
2022-09-16T12:38:05.428Z,17.26
2022-09-16T12:43:06.537Z,16.92
2022-09-16T12:48:08.670Z,17.11
2022-09-16T12:53:07.801Z,17.14
2022-09-16T12:58:09.912Z,17.20
2022-09-16T13:03:09.232Z,16.88
2022-09-16T13:08:11.404Z,16.88
2022-09-16T13:13:12.518Z,17.04
2022-09-16T13:18:12.642Z,16.95
2022-09-16T13:23:11.767Z,17.03
2022-09-16T13:28:14.054Z,16.58
2022-09-16T13:33:14.327Z,16.50
2022-09-16T13:38:13.446Z,16.12
2022-09-16T13:43:14.554Z,16.41
2022-09-16T13:48:15.788Z,16.25
2022-09-16T13:53:22.558Z,15.68
2022-09-16T13:58:17.646Z,15.52
2022-09-16T14:03:19.040Z,15.39
2022-09-16T14:08:20.299Z,15.39
2022-09-16T14:13:21.394Z,15.48
2022-09-16T14:18:23.619Z,15.02
2022-09-16T14:23:22.697Z,15.03
2022-09-16T14:28:23.919Z,14.94
2022-09-16T14:33:25.023Z,15.12
2022-09-16T14:38:44.842Z,14.72
2022-09-16T14:43:27.060Z,14.83
2022-09-16T14:48:27.798Z,14.60
2022-09-16T14:53:35.403Z,14.68
2022-09-16T14:58:31.968Z,14.64
2022-09-16T15:03:29.081Z,14.39
2022-09-16T15:08:30.169Z,14.25
2022-09-16T15:13:31.259Z,14.25
2022-09-16T15:18:32.626Z,14.27
2022-09-16T15:23:34.732Z,14.14
2022-09-16T15:28:34.909Z,14.29
2022-09-16T15:33:35.023Z,14.06
2022-09-16T15:38:35.127Z,14.20
2022-09-16T15:43:34.342Z,14.09
2022-09-16T15:48:35.620Z,14.06
2022-09-16T15:53:37.744Z,14.02
2022-09-16T15:58:36.842Z,13.96
2022-09-16T16:03:37.954Z,14.09
2022-09-16T16:08:39.045Z,14.19
2022-09-16T16:13:40.253Z,14.28
2022-09-16T16:18:42.343Z,14.27
2022-09-16T16:23:41.600Z,14.34
2022-09-16T16:28:42.751Z,14.39
2022-09-16T16:33:44.635Z,14.34
2022-09-16T16:38:43.927Z,14.19
2022-09-16T16:43:46.020Z,14.25
2022-09-16T16:48:45.133Z,14.20
2022-09-16T16:53:47.313Z,14.14
2022-09-16T16:58:48.440Z,14.10
2022-09-16T17:03:48.557Z,14.06
2022-09-16T17:08:48.664Z,14.01
2022-09-16T17:13:49.848Z,13.89
2022-09-16T17:18:49.036Z,13.91
2022-09-16T17:23:50.208Z,13.98
2022-09-16T17:28:52.299Z,14.04
2022-09-16T17:33:51.421Z,13.99
2022-09-16T17:38:52.541Z,13.84
2022-09-16T17:43:53.640Z,13.83
2022-09-16T17:48:55.740Z,13.63
2022-09-16T17:53:54.837Z,13.32
2022-09-16T17:58:57.996Z,13.33
2022-09-16T18:03:58.301Z,13.30
2022-09-16T18:08:59.513Z,13.37
2022-09-16T18:13:58.622Z,13.22
2022-09-16T18:18:59.948Z,13.37
2022-09-16T18:24:01.121Z,13.44
2022-09-16T18:29:11.204Z,13.24
2022-09-16T18:34:02.229Z,13.30
2022-09-16T18:39:03.457Z,13.30
2022-09-16T18:44:04.662Z,13.27
2022-09-16T18:49:09.692Z,13.12
2022-09-16T18:54:06.780Z,12.96
2022-09-16T18:59:24.618Z,13.03
2022-09-16T19:04:08.935Z,13.06
2022-09-16T19:09:10.064Z,13.02
2022-09-16T19:14:11.472Z,13.02
2022-09-16T19:19:12.568Z,13.04
2022-09-16T19:24:14.659Z,12.96
2022-09-16T19:29:13.776Z,12.89
2022-09-16T19:34:15.874Z,12.77
2022-09-16T19:39:14.996Z,12.82
2022-09-16T19:44:16.101Z,12.78
2022-09-16T19:49:17.205Z,12.70
2022-09-16T19:54:18.323Z,12.60
2022-09-16T19:59:20.463Z,12.69
2022-09-16T20:04:20.019Z,12.66
2022-09-16T20:09:19.146Z,12.59
2022-09-16T20:14:21.251Z,12.60
2022-09-16T20:19:21.375Z,12.51
2022-09-16T20:24:20.747Z,12.48
2022-09-16T20:29:22.874Z,12.39
2022-09-16T20:34:21.954Z,12.24
2022-09-16T20:39:23.062Z,12.41
2022-09-16T20:44:26.218Z,12.38
2022-09-16T20:49:26.340Z,12.09
2022-09-16T20:54:25.430Z,12.04
2022-09-16T20:59:26.692Z,11.96
2022-09-16T21:04:28.793Z,11.99
2022-09-16T21:09:28.023Z,12.02
2022-09-16T21:14:29.113Z,12.06
2022-09-16T21:19:30.231Z,12.08
2022-09-16T21:24:31.358Z,12.26
2022-09-16T21:29:33.448Z,12.49
2022-09-16T21:34:32.553Z,12.78
2022-09-16T21:39:37.566Z,12.89
2022-09-16T21:44:34.655Z,12.87
2022-09-16T21:49:37.790Z,12.70
2022-09-16T21:54:36.984Z,12.57
2022-09-16T21:59:38.123Z,12.45
2022-09-16T22:04:39.238Z,12.26
2022-09-16T22:09:40.367Z,12.12
2022-09-16T22:14:42.530Z,12.05
2022-09-16T22:19:41.633Z,12.09
2022-09-16T22:24:43.771Z,12.01
2022-09-16T22:29:42.871Z,11.86
2022-09-16T22:34:43.949Z,11.83
2022-09-16T22:39:46.122Z,11.86
2022-09-16T22:44:45.765Z,11.85
2022-09-16T22:49:44.817Z,11.78
2022-09-16T22:54:45.927Z,11.75
2022-09-16T22:59:48.052Z,11.67
2022-09-16T23:04:47.140Z,11.59
2022-09-16T23:09:48.336Z,11.61
2022-09-16T23:14:49.441Z,11.62
2022-09-16T23:19:50.569Z,11.71
2022-09-16T23:24:51.851Z,11.47
2022-09-16T23:29:53.967Z,11.47
2022-09-16T23:34:53.220Z,11.39
2022-09-16T23:39:54.414Z,11.38
2022-09-16T23:44:55.569Z,11.10
2022-09-16T23:49:56.694Z,10.80
2022-09-16T23:54:57.851Z,10.84
2022-09-16T23:59:59.144Z,10.94
